sensor_id;sensor_type;location;lat;lon;timestamp;temperature;humidity
17938;DHT22;16051;53.024;8.630;2023-03-14T00:02:57;11.90;99.90
17938;DHT22;16051;53.024;8.630;2023-03-14T00:07:01;11.80;99.90
17938;DHT22;16051;53.024;8.630;2023-03-14T00:11:08;11.90;99.90
17938;DHT22;16051;53.024;8.630;2023-03-14T00:15:12;11.80;99.90
17938;DHT22;16051;53.024;8.630;2023-03-14T00:19:20;11.80;99.90
17938;DHT22;16051;53.024;8.630;2023-03-14T00:23:23;11.70;99.90
17938;DHT22;16051;53.024;8.630;2023-03-14T00:27:26;11.70;99.90
17938;DHT22;16051;53.024;8.630;2023-03-14T00:31:34;11.70;99.90
17938;DHT22;16051;53.024;8.630;2023-03-14T00:35:36;11.60;99.90
17938;DHT22;16051;53.024;8.630;2023-03-14T00:39:40;11.60;99.90
17938;DHT22;16051;53.024;8.630;2023-03-14T00:43:53;11.60;99.90
17938;DHT22;16051;53.024;8.630;2023-03-14T00:47:55;11.60;99.90
17938;DHT22;16051;53.024;8.630;2023-03-14T00:51:57;11.60;99.90
17938;DHT22;16051;53.024;8.630;2023-03-14T00:56:04;11.50;99.90
17938;DHT22;16051;53.024;8.630;2023-03-14T01:00:09;11.50;99.90
17938;DHT22;16051;53.024;8.630;2023-03-14T01:04:13;11.40;99.90
17938;DHT22;16051;53.024;8.630;2023-03-14T01:08:39;11.40;99.90
17938;DHT22;16051;53.024;8.630;2023-03-14T01:12:42;11.40;99.90
17938;DHT22;16051;53.024;8.630;2023-03-14T01:16:44;11.40;99.90
17938;DHT22;16051;53.024;8.630;2023-03-14T01:20:46;11.40;99.90
17938;DHT22;16051;53.024;8.630;2023-03-14T01:24:48;11.40;99.90
17938;DHT22;16051;53.024;8.630;2023-03-14T01:28:53;11.50;99.90
17938;DHT22;16051;53.024;8.630;2023-03-14T01:32:56;11.50;99.90
17938;DHT22;16051;53.024;8.630;2023-03-14T01:37:24;11.40;99.90
17938;DHT22;16051;53.024;8.630;2023-03-14T01:41:27;11.40;99.90
17938;DHT22;16051;53.024;8.630;2023-03-14T01:50:21;11.40;99.90
17938;DHT22;16051;53.024;8.630;2023-03-14T01:54:27;11.50;99.90
17938;DHT22;16051;53.024;8.630;2023-03-14T01:58:34;11.50;99.90
17938;DHT22;16051;53.024;8.630;2023-03-14T02:02:38;11.40;99.90
17938;DHT22;16051;53.024;8.630;2023-03-14T02:06:48;11.40;99.90
17938;DHT22;16051;53.024;8.630;2023-03-14T02:10:53;11.30;99.90
17938;DHT22;16051;53.024;8.630;2023-03-14T02:14:56;11.20;99.90
17938;DHT22;16051;53.024;8.630;2023-03-14T02:18:59;11.20;99.90
17938;DHT22;16051;53.024;8.630;2023-03-14T02:23:08;11.20;99.90
17938;DHT22;16051;53.024;8.630;2023-03-14T02:27:13;11.30;99.90
17938;DHT22;16051;53.024;8.630;2023-03-14T02:31:17;11.30;99.90
17938;DHT22;16051;53.024;8.630;2023-03-14T02:35:21;11.30;99.90
17938;DHT22;16051;53.024;8.630;2023-03-14T02:39:36;11.40;99.90
17938;DHT22;16051;53.024;8.630;2023-03-14T02:43:42;11.50;99.90
17938;DHT22;16051;53.024;8.630;2023-03-14T02:48:06;11.40;99.90
17938;DHT22;16051;53.024;8.630;2023-03-14T02:52:12;11.50;99.90
17938;DHT22;16051;53.024;8.630;2023-03-14T02:56:14;11.60;99.90
17938;DHT22;16051;53.024;8.630;2023-03-14T03:00:20;11.60;99.90
17938;DHT22;16051;53.024;8.630;2023-03-14T03:04:28;11.60;99.90
17938;DHT22;16051;53.024;8.630;2023-03-14T03:08:31;11.70;99.90
17938;DHT22;16051;53.024;8.630;2023-03-14T03:12:33;11.70;99.90
17938;DHT22;16051;53.024;8.630;2023-03-14T03:16:37;11.70;99.90
17938;DHT22;16051;53.024;8.630;2023-03-14T03:20:39;11.70;99.90
17938;DHT22;16051;53.024;8.630;2023-03-14T03:24:41;11.80;99.90
17938;DHT22;16051;53.024;8.630;2023-03-14T03:28:45;11.80;99.90
17938;DHT22;16051;53.024;8.630;2023-03-14T03:32:50;11.70;99.90
17938;DHT22;16051;53.024;8.630;2023-03-14T03:36:55;11.80;99.90
17938;DHT22;16051;53.024;8.630;2023-03-14T03:40:58;11.70;99.90
17938;DHT22;16051;53.024;8.630;2023-03-14T03:45:03;11.70;99.90
17938;DHT22;16051;53.024;8.630;2023-03-14T03:49:08;11.70;99.90
17938;DHT22;16051;53.024;8.630;2023-03-14T03:53:10;11.60;99.90
17938;DHT22;16051;53.024;8.630;2023-03-14T03:57:12;11.60;99.90
17938;DHT22;16051;53.024;8.630;2023-03-14T04:01:28;11.60;99.90
17938;DHT22;16051;53.024;8.630;2023-03-14T04:05:31;11.50;99.90
17938;DHT22;16051;53.024;8.630;2023-03-14T04:09:34;11.50;99.90
17938;DHT22;16051;53.024;8.630;2023-03-14T04:13:36;11.50;99.90
17938;DHT22;16051;53.024;8.630;2023-03-14T04:17:38;11.50;99.90
17938;DHT22;16051;53.024;8.630;2023-03-14T04:21:43;11.50;99.90
17938;DHT22;16051;53.024;8.630;2023-03-14T04:25:47;11.50;99.90
17938;DHT22;16051;53.024;8.630;2023-03-14T04:29:49;11.50;99.90
17938;DHT22;16051;53.024;8.630;2023-03-14T04:33:51;11.50;99.90
17938;DHT22;16051;53.024;8.630;2023-03-14T04:38:10;11.50;99.90
17938;DHT22;16051;53.024;8.630;2023-03-14T04:42:14;11.50;99.90
17938;DHT22;16051;53.024;8.630;2023-03-14T04:46:16;11.40;99.90
17938;DHT22;16051;53.024;8.630;2023-03-14T04:50:19;11.40;99.90
17938;DHT22;16051;53.024;8.630;2023-03-14T04:54:22;11.40;99.90
17938;DHT22;16051;53.024;8.630;2023-03-14T04:58:24;11.40;99.90
17938;DHT22;16051;53.024;8.630;2023-03-14T05:02:27;11.30;99.90
17938;DHT22;16051;53.024;8.630;2023-03-14T05:06:38;11.30;99.90
17938;DHT22;16051;53.024;8.630;2023-03-14T05:10:41;11.20;99.90
17938;DHT22;16051;53.024;8.630;2023-03-14T05:14:44;11.20;99.90
17938;DHT22;16051;53.024;8.630;2023-03-14T05:18:46;11.20;99.90
17938;DHT22;16051;53.024;8.630;2023-03-14T05:22:48;11.20;99.90
17938;DHT22;16051;53.024;8.630;2023-03-14T05:26:51;11.10;99.90
17938;DHT22;16051;53.024;8.630;2023-03-14T05:30:59;11.10;99.90
17938;DHT22;16051;53.024;8.630;2023-03-14T05:35:01;11.10;99.90
17938;DHT22;16051;53.024;8.630;2023-03-14T05:39:03;11.10;99.90
17938;DHT22;16051;53.024;8.630;2023-03-14T05:43:07;11.00;99.90
17938;DHT22;16051;53.024;8.630;2023-03-14T05:47:11;11.00;99.90
17938;DHT22;16051;53.024;8.630;2023-03-14T05:51:13;11.00;99.90
17938;DHT22;16051;53.024;8.630;2023-03-14T05:55:15;10.90;99.90
17938;DHT22;16051;53.024;8.630;2023-03-14T05:59:19;10.90;99.90
17938;DHT22;16051;53.024;8.630;2023-03-14T06:03:21;10.90;99.90
17938;DHT22;16051;53.024;8.630;2023-03-14T06:07:23;11.00;99.90
17938;DHT22;16051;53.024;8.630;2023-03-14T06:11:52;11.00;99.90
17938;DHT22;16051;53.024;8.630;2023-03-14T06:16:10;11.10;99.90
17938;DHT22;16051;53.024;8.630;2023-03-14T06:20:12;11.10;99.90
17938;DHT22;16051;53.024;8.630;2023-03-14T06:24:48;11.20;99.90
17938;DHT22;16051;53.024;8.630;2023-03-14T06:28:50;11.20;99.90
17938;DHT22;16051;53.024;8.630;2023-03-14T06:32:55;11.20;99.90
17938;DHT22;16051;53.024;8.630;2023-03-14T06:36:57;11.20;99.90
17938;DHT22;16051;53.024;8.630;2023-03-14T06:41:03;11.20;99.90
17938;DHT22;16051;53.024;8.630;2023-03-14T06:45:07;11.20;99.90
17938;DHT22;16051;53.024;8.630;2023-03-14T06:49:11;11.20;99.90
17938;DHT22;16051;53.024;8.630;2023-03-14T06:53:14;11.20;99.90
17938;DHT22;16051;53.024;8.630;2023-03-14T06:57:17;11.60;99.90
17938;DHT22;16051;53.024;8.630;2023-03-14T07:01:22;11.70;99.90
17938;DHT22;16051;53.024;8.630;2023-03-14T07:05:48;11.70;99.90
17938;DHT22;16051;53.024;8.630;2023-03-14T07:09:50;11.60;99.90
17938;DHT22;16051;53.024;8.630;2023-03-14T07:13:52;11.70;99.90
17938;DHT22;16051;53.024;8.630;2023-03-14T07:17:54;11.70;99.90
17938;DHT22;16051;53.024;8.630;2023-03-14T07:21:58;11.80;99.90
17938;DHT22;16051;53.024;8.630;2023-03-14T07:26:02;11.80;99.90
17938;DHT22;16051;53.024;8.630;2023-03-14T07:30:05;12.00;99.90
17938;DHT22;16051;53.024;8.630;2023-03-14T07:34:10;12.30;99.90
17938;DHT22;16051;53.024;8.630;2023-03-14T07:38:14;12.50;99.90
17938;DHT22;16051;53.024;8.630;2023-03-14T07:42:16;12.70;99.90
17938;DHT22;16051;53.024;8.630;2023-03-14T07:46:18;12.90;99.90
17938;DHT22;16051;53.024;8.630;2023-03-14T07:50:28;12.90;99.90
17938;DHT22;16051;53.024;8.630;2023-03-14T07:54:32;13.00;99.90
17938;DHT22;16051;53.024;8.630;2023-03-14T07:58:34;13.00;99.90
17938;DHT22;16051;53.024;8.630;2023-03-14T08:02:36;13.10;99.90
17938;DHT22;16051;53.024;8.630;2023-03-14T08:06:38;13.10;99.90
17938;DHT22;16051;53.024;8.630;2023-03-14T08:10:42;13.10;99.90
17938;DHT22;16051;53.024;8.630;2023-03-14T08:14:44;13.20;99.90
17938;DHT22;16051;53.024;8.630;2023-03-14T08:18:47;13.10;99.90
17938;DHT22;16051;53.024;8.630;2023-03-14T08:22:49;13.10;99.90
17938;DHT22;16051;53.024;8.630;2023-03-14T08:26:52;13.10;99.90
17938;DHT22;16051;53.024;8.630;2023-03-14T08:30:55;13.10;99.90
17938;DHT22;16051;53.024;8.630;2023-03-14T08:35:04;13.00;99.90
17938;DHT22;16051;53.024;8.630;2023-03-14T08:39:07;13.00;99.90
17938;DHT22;16051;53.024;8.630;2023-03-14T08:43:11;12.80;99.90
17938;DHT22;16051;53.024;8.630;2023-03-14T08:47:13;12.70;99.90
17938;DHT22;16051;53.024;8.630;2023-03-14T08:51:23;12.70;99.90
17938;DHT22;16051;53.024;8.630;2023-03-14T08:55:26;12.80;99.90
17938;DHT22;16051;53.024;8.630;2023-03-14T08:59:30;12.70;99.90
17938;DHT22;16051;53.024;8.630;2023-03-14T09:03:32;12.60;99.90
17938;DHT22;16051;53.024;8.630;2023-03-14T09:07:34;12.50;99.90
17938;DHT22;16051;53.024;8.630;2023-03-14T09:11:36;12.40;99.90
17938;DHT22;16051;53.024;8.630;2023-03-14T09:15:40;12.30;99.90
17938;DHT22;16051;53.024;8.630;2023-03-14T09:19:52;12.00;99.90
17938;DHT22;16051;53.024;8.630;2023-03-14T09:23:54;11.70;99.90
17938;DHT22;16051;53.024;8.630;2023-03-14T09:27:56;11.40;99.90
17938;DHT22;16051;53.024;8.630;2023-03-14T09:32:00;11.00;99.90
17938;DHT22;16051;53.024;8.630;2023-03-14T09:36:02;10.80;99.90
17938;DHT22;16051;53.024;8.630;2023-03-14T09:40:12;10.60;99.90
17938;DHT22;16051;53.024;8.630;2023-03-14T09:44:25;10.50;99.90
17938;DHT22;16051;53.024;8.630;2023-03-14T09:48:32;10.20;99.90
17938;DHT22;16051;53.024;8.630;2023-03-14T09:52:46;10.00;99.90
17938;DHT22;16051;53.024;8.630;2023-03-14T09:56:54;9.90;99.90
17938;DHT22;16051;53.024;8.630;2023-03-14T10:00:59;9.70;99.90
17938;DHT22;16051;53.024;8.630;2023-03-14T10:05:07;9.50;99.90
17938;DHT22;16051;53.024;8.630;2023-03-14T10:09:20;9.50;99.90
17938;DHT22;16051;53.024;8.630;2023-03-14T10:13:34;9.30;99.90
17938;DHT22;16051;53.024;8.630;2023-03-14T10:17:42;9.30;99.90
17938;DHT22;16051;53.024;8.630;2023-03-14T10:21:52;9.30;99.90
17938;DHT22;16051;53.024;8.630;2023-03-14T10:26:03;9.30;99.90
17938;DHT22;16051;53.024;8.630;2023-03-14T10:30:33;9.20;99.90
17938;DHT22;16051;53.024;8.630;2023-03-14T10:35:07;9.10;99.90
17938;DHT22;16051;53.024;8.630;2023-03-14T10:39:41;9.10;99.90
17938;DHT22;16051;53.024;8.630;2023-03-14T10:43:58;9.10;99.90
17938;DHT22;16051;53.024;8.630;2023-03-14T10:48:35;9.10;99.90
17938;DHT22;16051;53.024;8.630;2023-03-14T10:52:48;9.00;99.90
17938;DHT22;16051;53.024;8.630;2023-03-14T10:56:59;9.10;99.90
17938;DHT22;16051;53.024;8.630;2023-03-14T11:01:13;9.20;99.90
17938;DHT22;16051;53.024;8.630;2023-03-14T11:05:33;9.30;99.90
17938;DHT22;16051;53.024;8.630;2023-03-14T11:09:44;9.30;99.90
17938;DHT22;16051;53.024;8.630;2023-03-14T11:14:05;9.40;99.90
17938;DHT22;16051;53.024;8.630;2023-03-14T11:18:43;9.50;99.90
17938;DHT22;16051;53.024;8.630;2023-03-14T11:22:57;9.70;99.90
17938;DHT22;16051;53.024;8.630;2023-03-14T11:27:09;10.00;99.90
17938;DHT22;16051;53.024;8.630;2023-03-14T11:31:25;10.30;99.90
17938;DHT22;16051;53.024;8.630;2023-03-14T11:35:32;10.60;99.90
17938;DHT22;16051;53.024;8.630;2023-03-14T11:39:39;11.10;99.90
17938;DHT22;16051;53.024;8.630;2023-03-14T11:43:52;11.40;99.90
17938;DHT22;16051;53.024;8.630;2023-03-14T11:48:08;11.50;99.90
17938;DHT22;16051;53.024;8.630;2023-03-14T11:52:20;11.10;99.90
17938;DHT22;16051;53.024;8.630;2023-03-14T11:56:33;11.10;99.90
17938;DHT22;16051;53.024;8.630;2023-03-14T12:00:50;11.00;99.90
17938;DHT22;16051;53.024;8.630;2023-03-14T12:05:25;11.00;99.90
17938;DHT22;16051;53.024;8.630;2023-03-14T12:09:41;11.40;99.90
17938;DHT22;16051;53.024;8.630;2023-03-14T12:13:48;11.50;99.90
17938;DHT22;16051;53.024;8.630;2023-03-14T12:17:54;11.90;99.90
17938;DHT22;16051;53.024;8.630;2023-03-14T12:26:51;11.90;99.90
17938;DHT22;16051;53.024;8.630;2023-03-14T12:35:45;11.60;99.90
17938;DHT22;16051;53.024;8.630;2023-03-14T12:40:04;11.60;99.90
17938;DHT22;16051;53.024;8.630;2023-03-14T12:44:42;12.30;99.90
17938;DHT22;16051;53.024;8.630;2023-03-14T12:48:47;12.60;99.90
17938;DHT22;16051;53.024;8.630;2023-03-14T12:53:05;12.70;99.90
17938;DHT22;16051;53.024;8.630;2023-03-14T12:57:28;12.80;99.90
17938;DHT22;16051;53.024;8.630;2023-03-14T13:01:47;13.70;99.90
17938;DHT22;16051;53.024;8.630;2023-03-14T13:06:02;13.50;99.90
17938;DHT22;16051;53.024;8.630;2023-03-14T13:10:38;14.30;99.90
17938;DHT22;16051;53.024;8.630;2023-03-14T13:14:48;14.30;97.50
17938;DHT22;16051;53.024;8.630;2023-03-14T13:19:03;14.50;96.50
17938;DHT22;16051;53.024;8.630;2023-03-14T13:23:20;13.70;96.50
17938;DHT22;16051;53.024;8.630;2023-03-14T13:27:23;13.20;96.40
17938;DHT22;16051;53.024;8.630;2023-03-14T13:31:43;12.80;96.90
17938;DHT22;16051;53.024;8.630;2023-03-14T13:35:54;12.40;96.30
17938;DHT22;16051;53.024;8.630;2023-03-14T13:39:58;12.30;95.90
17938;DHT22;16051;53.024;8.630;2023-03-14T13:44:03;12.30;95.20
17938;DHT22;16051;53.024;8.630;2023-03-14T13:48:10;12.30;94.70
17938;DHT22;16051;53.024;8.630;2023-03-14T13:52:28;12.50;94.30
17938;DHT22;16051;53.024;8.630;2023-03-14T13:56:32;12.60;93.50
17938;DHT22;16051;53.024;8.630;2023-03-14T14:01:05;12.40;92.70
17938;DHT22;16051;53.024;8.630;2023-03-14T14:05:12;12.20;93.00
17938;DHT22;16051;53.024;8.630;2023-03-14T14:09:27;12.00;92.60
17938;DHT22;16051;53.024;8.630;2023-03-14T14:13:33;11.90;92.40
17938;DHT22;16051;53.024;8.630;2023-03-14T14:22:20;16.30;85.80
17938;DHT22;16051;53.024;8.630;2023-03-14T14:26:24;19.80;65.00
17938;DHT22;16051;53.024;8.630;2023-03-14T14:35:38;14.30;74.80
17938;DHT22;16051;53.024;8.630;2023-03-14T14:39:56;13.80;99.90
17938;DHT22;16051;53.024;8.630;2023-03-14T14:44:03;13.10;94.90
17938;DHT22;16051;53.024;8.630;2023-03-14T14:48:09;12.80;96.00
17938;DHT22;16051;53.024;8.630;2023-03-14T14:52:34;13.30;98.10
17938;DHT22;16051;53.024;8.630;2023-03-14T14:56:47;14.00;92.10
17938;DHT22;16051;53.024;8.630;2023-03-14T15:01:02;15.60;83.90
17938;DHT22;16051;53.024;8.630;2023-03-14T15:05:12;15.40;81.30
17938;DHT22;16051;53.024;8.630;2023-03-14T15:09:22;14.40;80.30
17938;DHT22;16051;53.024;8.630;2023-03-14T15:13:24;14.40;78.90
17938;DHT22;16051;53.024;8.630;2023-03-14T15:17:28;13.90;77.30
17938;DHT22;16051;53.024;8.630;2023-03-14T15:21:35;13.20;75.80
17938;DHT22;16051;53.024;8.630;2023-03-14T15:25:38;13.20;92.70
17938;DHT22;16051;53.024;8.630;2023-03-14T15:29:41;13.00;85.10
17938;DHT22;16051;53.024;8.630;2023-03-14T15:33:45;13.30;82.20
17938;DHT22;16051;53.024;8.630;2023-03-14T15:37:48;15.20;78.40
17938;DHT22;16051;53.024;8.630;2023-03-14T15:42:01;14.30;74.30
17938;DHT22;16051;53.024;8.630;2023-03-14T15:46:05;15.80;71.50
17938;DHT22;16051;53.024;8.630;2023-03-14T15:50:12;16.10;68.40
17938;DHT22;16051;53.024;8.630;2023-03-14T15:54:14;15.40;69.80
17938;DHT22;16051;53.024;8.630;2023-03-14T15:58:18;14.80;72.70
17938;DHT22;16051;53.024;8.630;2023-03-14T16:02:21;15.30;72.00
17938;DHT22;16051;53.024;8.630;2023-03-14T16:06:25;14.40;72.40
17938;DHT22;16051;53.024;8.630;2023-03-14T16:10:33;13.80;72.90
17938;DHT22;16051;53.024;8.630;2023-03-14T16:14:35;13.30;72.40
17938;DHT22;16051;53.024;8.630;2023-03-14T16:18:42;12.80;74.40
17938;DHT22;16051;53.024;8.630;2023-03-14T16:22:55;12.30;75.70
17938;DHT22;16051;53.024;8.630;2023-03-14T16:26:57;12.00;75.60
17938;DHT22;16051;53.024;8.630;2023-03-14T16:31:00;11.90;74.50
17938;DHT22;16051;53.024;8.630;2023-03-14T16:35:03;11.70;74.80
17938;DHT22;16051;53.024;8.630;2023-03-14T16:39:07;11.50;74.90
17938;DHT22;16051;53.024;8.630;2023-03-14T16:43:10;11.20;75.10
17938;DHT22;16051;53.024;8.630;2023-03-14T16:47:12;10.90;75.90
17938;DHT22;16051;53.024;8.630;2023-03-14T16:51:22;10.70;77.50
17938;DHT22;16051;53.024;8.630;2023-03-14T16:55:26;10.60;79.30
17938;DHT22;16051;53.024;8.630;2023-03-14T16:59:46;10.40;80.20
17938;DHT22;16051;53.024;8.630;2023-03-14T17:03:50;10.20;81.10
17938;DHT22;16051;53.024;8.630;2023-03-14T17:08:01;10.00;81.80
17938;DHT22;16051;53.024;8.630;2023-03-14T17:12:11;9.90;84.10
17938;DHT22;16051;53.024;8.630;2023-03-14T17:16:13;9.70;85.00
17938;DHT22;16051;53.024;8.630;2023-03-14T17:20:15;9.60;88.40
17938;DHT22;16051;53.024;8.630;2023-03-14T17:24:26;9.40;90.30
17938;DHT22;16051;53.024;8.630;2023-03-14T17:28:30;9.20;91.30
17938;DHT22;16051;53.024;8.630;2023-03-14T17:32:32;9.00;92.30
17938;DHT22;16051;53.024;8.630;2023-03-14T17:36:34;8.90;93.50
17938;DHT22;16051;53.024;8.630;2023-03-14T17:40:36;8.80;94.30
17938;DHT22;16051;53.024;8.630;2023-03-14T17:49:23;8.50;95.60
17938;DHT22;16051;53.024;8.630;2023-03-14T17:53:34;8.50;96.30
17938;DHT22;16051;53.024;8.630;2023-03-14T17:57:38;8.40;96.40
17938;DHT22;16051;53.024;8.630;2023-03-14T18:01:46;8.30;96.50
17938;DHT22;16051;53.024;8.630;2023-03-14T18:05:51;8.10;96.10
17938;DHT22;16051;53.024;8.630;2023-03-14T18:09:53;8.40;98.30
17938;DHT22;16051;53.024;8.630;2023-03-14T18:13:56;8.10;98.50
17938;DHT22;16051;53.024;8.630;2023-03-14T18:18:02;7.80;98.80
17938;DHT22;16051;53.024;8.630;2023-03-14T18:22:04;7.70;99.20
17938;DHT22;16051;53.024;8.630;2023-03-14T18:26:07;7.50;99.40
17938;DHT22;16051;53.024;8.630;2023-03-14T18:30:10;7.40;99.80
17938;DHT22;16051;53.024;8.630;2023-03-14T18:34:15;7.30;99.70
17938;DHT22;16051;53.024;8.630;2023-03-14T18:38:17;7.10;99.90
17938;DHT22;16051;53.024;8.630;2023-03-14T18:42:20;7.00;99.90
17938;DHT22;16051;53.024;8.630;2023-03-14T18:46:26;7.00;99.90
17938;DHT22;16051;53.024;8.630;2023-03-14T18:50:30;6.90;99.90
17938;DHT22;16051;53.024;8.630;2023-03-14T18:54:40;6.80;99.90
17938;DHT22;16051;53.024;8.630;2023-03-14T18:58:42;6.60;99.90
17938;DHT22;16051;53.024;8.630;2023-03-14T19:02:44;6.60;99.90
17938;DHT22;16051;53.024;8.630;2023-03-14T19:06:48;6.50;99.90
17938;DHT22;16051;53.024;8.630;2023-03-14T19:10:54;6.30;99.90
17938;DHT22;16051;53.024;8.630;2023-03-14T19:15:01;6.30;99.90
17938;DHT22;16051;53.024;8.630;2023-03-14T19:19:04;6.20;99.90
17938;DHT22;16051;53.024;8.630;2023-03-14T19:23:13;6.10;99.90
17938;DHT22;16051;53.024;8.630;2023-03-14T19:27:15;6.00;99.90
17938;DHT22;16051;53.024;8.630;2023-03-14T19:31:21;5.90;99.90
17938;DHT22;16051;53.024;8.630;2023-03-14T19:35:52;5.90;99.90
17938;DHT22;16051;53.024;8.630;2023-03-14T19:40:29;5.80;99.90
17938;DHT22;16051;53.024;8.630;2023-03-14T19:44:32;5.80;99.90
17938;DHT22;16051;53.024;8.630;2023-03-14T19:49:02;5.70;99.90
17938;DHT22;16051;53.024;8.630;2023-03-14T19:53:05;5.60;99.90
17938;DHT22;16051;53.024;8.630;2023-03-14T19:57:12;5.60;99.90
17938;DHT22;16051;53.024;8.630;2023-03-14T20:01:14;5.50;99.90
17938;DHT22;16051;53.024;8.630;2023-03-14T20:05:49;5.50;99.90
17938;DHT22;16051;53.024;8.630;2023-03-14T20:09:52;5.40;99.90
17938;DHT22;16051;53.024;8.630;2023-03-14T20:13:56;5.30;99.90
17938;DHT22;16051;53.024;8.630;2023-03-14T20:17:58;5.30;99.90
17938;DHT22;16051;53.024;8.630;2023-03-14T20:22:00;5.20;99.90
17938;DHT22;16051;53.024;8.630;2023-03-14T20:26:04;5.20;99.90
17938;DHT22;16051;53.024;8.630;2023-03-14T20:30:10;5.20;99.90
17938;DHT22;16051;53.024;8.630;2023-03-14T20:34:14;5.10;99.90
17938;DHT22;16051;53.024;8.630;2023-03-14T20:38:17;5.10;99.90
17938;DHT22;16051;53.024;8.630;2023-03-14T20:42:19;5.00;99.90
17938;DHT22;16051;53.024;8.630;2023-03-14T20:51:26;4.90;99.90
17938;DHT22;16051;53.024;8.630;2023-03-14T20:55:28;4.80;99.90
17938;DHT22;16051;53.024;8.630;2023-03-14T20:59:49;4.80;99.90
17938;DHT22;16051;53.024;8.630;2023-03-14T21:03:51;4.80;99.90
17938;DHT22;16051;53.024;8.630;2023-03-14T21:07:54;4.80;99.90
17938;DHT22;16051;53.024;8.630;2023-03-14T21:11:57;4.70;99.90
17938;DHT22;16051;53.024;8.630;2023-03-14T21:15:59;4.70;99.90
17938;DHT22;16051;53.024;8.630;2023-03-14T21:20:01;4.60;99.90
17938;DHT22;16051;53.024;8.630;2023-03-14T21:24:08;4.60;99.90
17938;DHT22;16051;53.024;8.630;2023-03-14T21:28:10;4.50;99.90
17938;DHT22;16051;53.024;8.630;2023-03-14T21:32:47;4.50;99.90
17938;DHT22;16051;53.024;8.630;2023-03-14T21:36:49;4.40;99.90
17938;DHT22;16051;53.024;8.630;2023-03-14T21:41:00;4.40;99.90
17938;DHT22;16051;53.024;8.630;2023-03-14T21:49:31;4.30;99.90
17938;DHT22;16051;53.024;8.630;2023-03-14T21:53:37;4.30;99.90
17938;DHT22;16051;53.024;8.630;2023-03-14T21:57:41;4.30;99.90
17938;DHT22;16051;53.024;8.630;2023-03-14T22:01:44;4.30;99.90
17938;DHT22;16051;53.024;8.630;2023-03-14T22:05:46;4.30;99.90
17938;DHT22;16051;53.024;8.630;2023-03-14T22:09:48;4.40;99.90
17938;DHT22;16051;53.024;8.630;2023-03-14T22:13:52;4.40;99.90
17938;DHT22;16051;53.024;8.630;2023-03-14T22:17:54;4.40;99.90
17938;DHT22;16051;53.024;8.630;2023-03-14T22:21:57;4.30;99.90
17938;DHT22;16051;53.024;8.630;2023-03-14T22:26:00;4.30;99.90
17938;DHT22;16051;53.024;8.630;2023-03-14T22:30:10;4.30;99.90
17938;DHT22;16051;53.024;8.630;2023-03-14T22:34:13;4.20;99.90
17938;DHT22;16051;53.024;8.630;2023-03-14T22:38:15;4.20;99.90
17938;DHT22;16051;53.024;8.630;2023-03-14T22:42:17;4.20;99.90
17938;DHT22;16051;53.024;8.630;2023-03-14T22:46:21;4.10;99.90
17938;DHT22;16051;53.024;8.630;2023-03-14T22:50:23;4.00;99.90
17938;DHT22;16051;53.024;8.630;2023-03-14T22:54:25;4.00;99.90
17938;DHT22;16051;53.024;8.630;2023-03-14T22:58:28;3.90;99.90
17938;DHT22;16051;53.024;8.630;2023-03-14T23:02:38;3.90;99.90
17938;DHT22;16051;53.024;8.630;2023-03-14T23:06:41;3.90;99.90
17938;DHT22;16051;53.024;8.630;2023-03-14T23:10:43;3.80;99.90
17938;DHT22;16051;53.024;8.630;2023-03-14T23:14:45;3.80;99.90
17938;DHT22;16051;53.024;8.630;2023-03-14T23:18:49;3.80;99.90
17938;DHT22;16051;53.024;8.630;2023-03-14T23:23:01;3.70;99.90
17938;DHT22;16051;53.024;8.630;2023-03-14T23:27:13;3.70;99.90
17938;DHT22;16051;53.024;8.630;2023-03-14T23:31:19;3.70;99.90
17938;DHT22;16051;53.024;8.630;2023-03-14T23:35:23;3.70;99.90
17938;DHT22;16051;53.024;8.630;2023-03-14T23:39:25;3.70;99.90
17938;DHT22;16051;53.024;8.630;2023-03-14T23:43:28;3.70;99.90
17938;DHT22;16051;53.024;8.630;2023-03-14T23:47:40;3.70;99.90
17938;DHT22;16051;53.024;8.630;2023-03-14T23:51:43;3.60;99.90
17938;DHT22;16051;53.024;8.630;2023-03-14T23:55:45;3.60;99.90
17938;DHT22;16051;53.024;8.630;2023-03-14T23:59:47;3.60;99.90
